sensor_id;sensor_type;location;lat;lon;timestamp;P1;durP1;ratioP1;P2;durP2;ratioP2
31336;SDS011;22846;42.654;23.314;2022-10-17T00:00:59;16.08;;;10.63;;
31336;SDS011;22846;42.654;23.314;2022-10-17T00:03:24;14.48;;;10.38;;
31336;SDS011;22846;42.654;23.314;2022-10-17T00:05:50;15.43;;;10.73;;
31336;SDS011;22846;42.654;23.314;2022-10-17T00:08:16;16.48;;;11.18;;
31336;SDS011;22846;42.654;23.314;2022-10-17T00:10:42;14.00;;;10.18;;
31336;SDS011;22846;42.654;23.314;2022-10-17T00:13:08;15.43;;;9.95;;
31336;SDS011;22846;42.654;23.314;2022-10-17T00:15:34;14.75;;;10.38;;
31336;SDS011;22846;42.654;23.314;2022-10-17T00:18:00;14.45;;;10.70;;
31336;SDS011;22846;42.654;23.314;2022-10-17T00:20:25;14.15;;;9.70;;
31336;SDS011;22846;42.654;23.314;2022-10-17T00:22:51;14.05;;;9.93;;
31336;SDS011;22846;42.654;23.314;2022-10-17T00:25:16;13.40;;;9.95;;
31336;SDS011;22846;42.654;23.314;2022-10-17T00:27:42;15.98;;;9.43;;
31336;SDS011;22846;42.654;23.314;2022-10-17T00:30:10;15.40;;;9.30;;
31336;SDS011;22846;42.654;23.314;2022-10-17T00:32:37;13.25;;;9.35;;
31336;SDS011;22846;42.654;23.314;2022-10-17T00:35:02;11.95;;;9.02;;
31336;SDS011;22846;42.654;23.314;2022-10-17T00:37:29;13.98;;;9.82;;
31336;SDS011;22846;42.654;23.314;2022-10-17T00:39:55;12.30;;;9.55;;
31336;SDS011;22846;42.654;23.314;2022-10-17T00:42:21;12.68;;;8.93;;
31336;SDS011;22846;42.654;23.314;2022-10-17T00:47:14;11.68;;;9.48;;
31336;SDS011;22846;42.654;23.314;2022-10-17T00:49:43;10.95;;;8.40;;
31336;SDS011;22846;42.654;23.314;2022-10-17T00:52:17;14.57;;;8.85;;
31336;SDS011;22846;42.654;23.314;2022-10-17T00:54:47;10.93;;;8.57;;
31336;SDS011;22846;42.654;23.314;2022-10-17T00:57:15;12.45;;;8.88;;
31336;SDS011;22846;42.654;23.314;2022-10-17T00:59:42;10.98;;;8.45;;
31336;SDS011;22846;42.654;23.314;2022-10-17T01:02:12;10.77;;;7.85;;
31336;SDS011;22846;42.654;23.314;2022-10-17T01:04:41;11.40;;;8.40;;
31336;SDS011;22846;42.654;23.314;2022-10-17T01:07:08;13.27;;;8.63;;
31336;SDS011;22846;42.654;23.314;2022-10-17T01:09:34;9.65;;;7.43;;
31336;SDS011;22846;42.654;23.314;2022-10-17T01:25:55;11.27;;;7.93;;
31336;SDS011;22846;42.654;23.314;2022-10-17T01:31:22;11.20;;;8.00;;
31336;SDS011;22846;42.654;23.314;2022-10-17T01:36:38;9.88;;;7.43;;
31336;SDS011;22846;42.654;23.314;2022-10-17T01:39:09;11.23;;;6.93;;
31336;SDS011;22846;42.654;23.314;2022-10-17T01:44:43;10.35;;;7.10;;
31336;SDS011;22846;42.654;23.314;2022-10-17T01:47:33;8.85;;;7.20;;
31336;SDS011;22846;42.654;23.314;2022-10-17T01:50:00;8.88;;;7.15;;
31336;SDS011;22846;42.654;23.314;2022-10-17T01:52:36;9.02;;;6.82;;
31336;SDS011;22846;42.654;23.314;2022-10-17T01:55:27;10.80;;;7.18;;
31336;SDS011;22846;42.654;23.314;2022-10-17T01:57:56;9.05;;;6.75;;
31336;SDS011;22846;42.654;23.314;2022-10-17T02:00:27;9.90;;;7.13;;
31336;SDS011;22846;42.654;23.314;2022-10-17T02:02:56;7.88;;;6.22;;
31336;SDS011;22846;42.654;23.314;2022-10-17T02:05:25;9.00;;;6.68;;
31336;SDS011;22846;42.654;23.314;2022-10-17T02:07:56;8.20;;;6.55;;
31336;SDS011;22846;42.654;23.314;2022-10-17T02:10:29;8.35;;;6.53;;
31336;SDS011;22846;42.654;23.314;2022-10-17T02:13:03;9.27;;;6.35;;
31336;SDS011;22846;42.654;23.314;2022-10-17T02:15:53;7.95;;;6.65;;
31336;SDS011;22846;42.654;23.314;2022-10-17T02:18:40;8.23;;;6.03;;
31336;SDS011;22846;42.654;23.314;2022-10-17T02:21:18;8.40;;;6.70;;
31336;SDS011;22846;42.654;23.314;2022-10-17T02:27:07;6.75;;;5.90;;
31336;SDS011;22846;42.654;23.314;2022-10-17T02:29:20;7.75;;;5.82;;
31336;SDS011;22846;42.654;23.314;2022-10-17T02:32:00;8.93;;;6.47;;
31336;SDS011;22846;42.654;23.314;2022-10-17T02:34:31;8.23;;;6.03;;
31336;SDS011;22846;42.654;23.314;2022-10-17T02:37:03;8.45;;;6.20;;
31336;SDS011;22846;42.654;23.314;2022-10-17T02:39:31;8.10;;;6.20;;
31336;SDS011;22846;42.654;23.314;2022-10-17T02:41:59;7.05;;;5.40;;
31336;SDS011;22846;42.654;23.314;2022-10-17T02:44:30;7.85;;;6.00;;
31336;SDS011;22846;42.654;23.314;2022-10-17T02:47:03;6.70;;;5.35;;
31336;SDS011;22846;42.654;23.314;2022-10-17T02:49:38;6.88;;;5.40;;
31336;SDS011;22846;42.654;23.314;2022-10-17T02:52:20;7.45;;;5.63;;
